createdAt,value
2023-05-03T00:00:21.203Z,100.00
2023-05-03T00:02:24.175Z,100.00
2023-05-03T00:04:26.958Z,100.00
2023-05-03T00:06:30.186Z,100.00
2023-05-03T00:08:32.910Z,100.00
2023-05-03T00:10:35.908Z,100.00
2023-05-03T00:12:39.693Z,100.00
2023-05-03T00:14:42.622Z,100.00
2023-05-03T00:16:45.536Z,100.00
2023-05-03T00:18:49.350Z,100.00
2023-05-03T00:20:53.519Z,100.00
2023-05-03T00:22:56.684Z,100.00
2023-05-03T00:25:00.722Z,100.00
2023-05-03T00:27:04.925Z,100.00
2023-05-03T00:29:07.634Z,100.00
2023-05-03T00:31:11.316Z,100.00
2023-05-03T00:33:16.725Z,100.00
2023-05-03T00:35:19.625Z,100.00
2023-05-03T00:37:26.320Z,100.00
2023-05-03T00:39:32.616Z,100.00
2023-05-03T00:41:35.465Z,100.00
2023-05-03T00:43:38.255Z,100.00
2023-05-03T00:45:41.456Z,100.00
2023-05-03T00:47:44.537Z,100.00
2023-05-03T00:49:47.508Z,100.00
2023-05-03T00:51:52.350Z,100.00
2023-05-03T00:53:55.304Z,100.00
2023-05-03T00:56:01.167Z,100.00
2023-05-03T00:58:04.002Z,100.00
2023-05-03T01:00:09.644Z,100.00
2023-05-03T01:02:12.777Z,100.00
2023-05-03T01:04:16.312Z,100.00
2023-05-03T01:06:37.539Z,100.00
2023-05-03T01:09:03.454Z,100.00
2023-05-03T01:11:15.139Z,100.00
2023-05-03T01:13:42.942Z,100.00
2023-05-03T01:15:51.257Z,100.00
2023-05-03T01:18:04.598Z,100.00
2023-05-03T01:20:11.197Z,100.00
2023-05-03T01:22:38.587Z,100.00
2023-05-03T01:24:46.104Z,100.00
2023-05-03T01:26:48.904Z,100.00
2023-05-03T01:28:52.062Z,100.00
2023-05-03T01:30:56.365Z,100.00
2023-05-03T01:33:05.316Z,100.00
2023-05-03T01:35:35.894Z,100.00
2023-05-03T01:37:40.127Z,100.00
2023-05-03T01:39:59.945Z,100.00
2023-05-03T01:42:05.548Z,100.00
2023-05-03T01:44:11.091Z,100.00
2023-05-03T01:46:14.306Z,100.00
2023-05-03T01:48:19.574Z,100.00
2023-05-03T01:50:22.444Z,100.00
2023-05-03T01:52:27.089Z,100.00
2023-05-03T01:54:29.927Z,100.00
2023-05-03T01:56:34.920Z,100.00
2023-05-03T01:58:37.754Z,100.00
2023-05-03T02:00:40.502Z,100.00
2023-05-03T02:02:43.347Z,100.00
2023-05-03T02:04:46.286Z,100.00
2023-05-03T02:06:49.029Z,100.00
2023-05-03T02:08:52.688Z,100.00
2023-05-03T02:10:55.508Z,100.00
2023-05-03T02:12:58.991Z,100.00
2023-05-03T02:15:01.665Z,100.00
2023-05-03T02:17:10.572Z,100.00
2023-05-03T02:19:13.360Z,100.00
2023-05-03T02:21:16.460Z,100.00
2023-05-03T02:23:19.392Z,100.00
2023-05-03T02:25:22.204Z,100.00
2023-05-03T02:27:25.360Z,100.00
2023-05-03T02:29:28.154Z,100.00
2023-05-03T02:31:31.179Z,100.00
2023-05-03T02:33:33.906Z,100.00
2023-05-03T02:35:36.670Z,100.00
2023-05-03T02:37:39.358Z,100.00
2023-05-03T02:39:42.194Z,100.00
2023-05-03T02:41:45.076Z,100.00
2023-05-03T02:43:47.732Z,100.00
2023-05-03T02:45:50.408Z,100.00
2023-05-03T02:47:53.152Z,100.00
2023-05-03T02:49:56.566Z,100.00
2023-05-03T02:51:59.595Z,100.00
2023-05-03T02:54:02.936Z,100.00
2023-05-03T02:56:06.108Z,100.00
2023-05-03T02:58:10.276Z,100.00
2023-05-03T03:00:15.507Z,100.00
2023-05-03T03:02:18.478Z,100.00
2023-05-03T03:04:21.424Z,100.00
2023-05-03T03:06:24.190Z,100.00
2023-05-03T03:08:27.019Z,100.00
2023-05-03T03:10:29.901Z,100.00
2023-05-03T03:12:33.504Z,100.00
2023-05-03T03:14:36.625Z,100.00
2023-05-03T03:16:39.486Z,100.00
2023-05-03T03:18:42.265Z,100.00
2023-05-03T03:20:45.021Z,100.00
2023-05-03T03:22:47.845Z,100.00
2023-05-03T03:24:50.746Z,100.00
2023-05-03T03:26:53.477Z,100.00
2023-05-03T03:28:56.181Z,100.00
2023-05-03T03:30:59.223Z,100.00
2023-05-03T03:33:02.093Z,100.00
2023-05-03T03:35:05.132Z,100.00
2023-05-03T03:37:08.000Z,100.00
2023-05-03T03:39:10.782Z,100.00
2023-05-03T03:41:13.747Z,100.00
2023-05-03T03:43:16.408Z,100.00
2023-05-03T03:45:19.481Z,100.00
2023-05-03T03:47:22.486Z,100.00
2023-05-03T03:49:25.866Z,100.00
2023-05-03T03:51:28.702Z,100.00
2023-05-03T03:53:31.407Z,100.00
2023-05-03T03:55:34.151Z,100.00
2023-05-03T03:57:36.805Z,100.00
2023-05-03T03:59:39.517Z,100.00
2023-05-03T04:01:42.477Z,100.00
2023-05-03T04:03:48.330Z,100.00
2023-05-03T04:05:51.436Z,100.00
2023-05-03T04:07:54.160Z,100.00
2023-05-03T04:09:56.869Z,100.00
2023-05-03T04:12:00.131Z,100.00
2023-05-03T04:14:03.790Z,100.00
2023-05-03T04:16:07.947Z,100.00
2023-05-03T04:18:11.504Z,100.00
2023-05-03T04:20:14.431Z,100.00
2023-05-03T04:22:17.261Z,100.00
2023-05-03T04:24:20.012Z,100.00
2023-05-03T04:26:31.848Z,100.00
2023-05-03T04:28:34.962Z,100.00
2023-05-03T04:30:38.170Z,100.00
2023-05-03T04:32:42.897Z,100.00
2023-05-03T04:34:49.007Z,100.00
2023-05-03T04:36:52.158Z,100.00
2023-05-03T04:38:55.051Z,100.00
2023-05-03T04:40:58.563Z,100.00
2023-05-03T04:43:01.538Z,100.00
2023-05-03T04:45:06.957Z,100.00
2023-05-03T04:47:09.754Z,100.00
2023-05-03T04:49:14.616Z,100.00
2023-05-03T04:51:17.336Z,100.00
2023-05-03T04:53:20.123Z,100.00
2023-05-03T04:55:22.864Z,100.00
2023-05-03T04:57:26.100Z,100.00
2023-05-03T04:59:28.866Z,100.00
2023-05-03T05:01:31.854Z,100.00
2023-05-03T05:03:34.830Z,100.00
2023-05-03T05:05:37.791Z,100.00
2023-05-03T05:07:41.046Z,100.00
2023-05-03T05:09:43.892Z,100.00
2023-05-03T05:11:46.816Z,100.00
2023-05-03T05:13:49.738Z,100.00
2023-05-03T05:15:52.494Z,100.00
2023-05-03T05:17:56.020Z,100.00
2023-05-03T05:19:58.841Z,100.00
2023-05-03T05:22:01.599Z,100.00
2023-05-03T05:24:04.804Z,100.00
2023-05-03T05:26:07.766Z,100.00
2023-05-03T05:28:11.563Z,100.00
2023-05-03T05:30:14.804Z,100.00
2023-05-03T05:32:17.514Z,100.00
2023-05-03T05:34:20.256Z,100.00
2023-05-03T05:36:23.221Z,100.00
2023-05-03T05:38:26.135Z,100.00
2023-05-03T05:40:29.063Z,100.00
2023-05-03T05:42:31.865Z,100.00
2023-05-03T05:44:34.721Z,100.00
2023-05-03T05:46:37.625Z,100.00
2023-05-03T05:48:42.465Z,100.00
2023-05-03T05:50:46.050Z,100.00
2023-05-03T05:52:51.579Z,100.00
2023-05-03T05:54:54.436Z,100.00
2023-05-03T05:56:58.317Z,100.00
2023-05-03T05:59:01.242Z,100.00
2023-05-03T06:01:05.039Z,100.00
2023-05-03T06:03:08.116Z,100.00
2023-05-03T06:05:12.216Z,100.00
2023-05-03T06:07:16.359Z,100.00
2023-05-03T06:09:24.602Z,100.00
2023-05-03T06:11:28.223Z,100.00
2023-05-03T06:13:32.307Z,100.00
2023-05-03T06:15:35.105Z,100.00
2023-05-03T06:17:37.881Z,100.00
2023-05-03T06:19:42.226Z,100.00
2023-05-03T06:21:47.101Z,100.00
2023-05-03T06:23:49.905Z,100.00
2023-05-03T06:25:52.818Z,100.00
2023-05-03T06:27:55.661Z,100.00
2023-05-03T06:29:58.439Z,100.00
2023-05-03T06:32:01.621Z,100.00
2023-05-03T06:34:04.533Z,100.00
2023-05-03T06:36:08.556Z,100.00
2023-05-03T06:38:12.214Z,100.00
2023-05-03T06:40:16.271Z,100.00
2023-05-03T06:42:18.966Z,100.00
2023-05-03T06:44:21.814Z,100.00
2023-05-03T06:46:24.926Z,98.22
2023-05-03T06:48:28.215Z,96.06
2023-05-03T06:50:31.303Z,95.60
2023-05-03T06:52:34.471Z,92.59
2023-05-03T06:54:37.360Z,90.00
2023-05-03T06:56:40.223Z,87.61
2023-05-03T06:58:43.393Z,85.50
2023-05-03T07:00:46.895Z,87.77
2023-05-03T07:02:49.949Z,91.72
2023-05-03T07:04:52.795Z,89.83
2023-05-03T07:06:56.683Z,89.40
2023-05-03T07:08:59.742Z,90.48
2023-05-03T07:11:02.473Z,87.73
2023-05-03T07:13:05.158Z,83.51
2023-05-03T07:15:08.469Z,88.38
2023-05-03T07:17:11.298Z,85.03
2023-05-03T07:19:14.071Z,91.58
2023-05-03T07:21:16.945Z,89.95
2023-05-03T07:23:19.641Z,89.48
2023-05-03T07:25:22.441Z,89.60
2023-05-03T07:27:26.216Z,87.73
2023-05-03T07:29:29.403Z,88.77
2023-05-03T07:31:32.788Z,88.63
2023-05-03T07:33:37.713Z,89.39
2023-05-03T07:35:40.767Z,88.60
2023-05-03T07:37:43.672Z,89.72
2023-05-03T07:39:46.344Z,85.99
2023-05-03T07:41:49.570Z,86.11
2023-05-03T07:43:52.352Z,85.41
2023-05-03T07:45:55.168Z,83.87
2023-05-03T07:47:58.800Z,86.76
2023-05-03T07:50:02.389Z,82.57
2023-05-03T07:52:06.945Z,85.58
2023-05-03T07:54:09.856Z,83.50
2023-05-03T07:56:12.721Z,82.34
2023-05-03T07:58:15.444Z,83.35
2023-05-03T08:00:19.420Z,79.10
2023-05-03T08:02:22.692Z,79.99
2023-05-03T08:04:26.077Z,78.56
2023-05-03T08:06:29.592Z,77.09
2023-05-03T08:08:32.368Z,78.99
2023-05-03T08:10:38.066Z,79.69
2023-05-03T08:12:41.722Z,82.83
2023-05-03T08:14:44.605Z,84.64
2023-05-03T08:16:47.385Z,76.18
2023-05-03T08:18:50.102Z,76.98
2023-05-03T08:20:52.865Z,77.69
2023-05-03T08:22:57.074Z,72.82
2023-05-03T08:25:01.402Z,74.56
2023-05-03T08:27:04.131Z,75.16
2023-05-03T08:29:07.511Z,72.75
2023-05-03T08:31:10.497Z,78.12
2023-05-03T08:33:13.348Z,75.82
2023-05-03T08:35:16.173Z,73.38
2023-05-03T08:37:19.150Z,75.93
2023-05-03T08:39:21.891Z,75.50
2023-05-03T08:41:31.626Z,71.88
2023-05-03T08:43:41.665Z,68.95
2023-05-03T08:45:44.609Z,66.42
2023-05-03T08:47:47.677Z,68.19
2023-05-03T08:49:53.183Z,70.68
2023-05-03T08:51:56.905Z,65.99
2023-05-03T08:54:00.052Z,71.03
2023-05-03T08:56:08.346Z,66.21
2023-05-03T08:58:12.939Z,67.38
2023-05-03T09:00:16.540Z,72.26
2023-05-03T09:02:20.663Z,70.27
2023-05-03T09:04:35.033Z,73.02
2023-05-03T09:06:39.044Z,72.10
2023-05-03T09:08:44.654Z,70.21
2023-05-03T09:10:47.598Z,70.03
2023-05-03T09:12:57.895Z,67.91
2023-05-03T09:15:01.223Z,66.98
2023-05-03T09:17:19.403Z,68.22
2023-05-03T09:19:22.137Z,65.44
2023-05-03T09:21:25.237Z,69.00
2023-05-03T09:23:28.860Z,76.51
2023-05-03T09:26:01.198Z,69.81
2023-05-03T09:28:04.159Z,61.75
2023-05-03T09:30:19.784Z,67.97
2023-05-03T09:32:23.143Z,62.56
2023-05-03T09:34:25.857Z,67.56
2023-05-03T09:36:28.932Z,72.63
2023-05-03T09:38:38.936Z,68.25
2023-05-03T09:40:48.644Z,74.86
2023-05-03T09:43:11.459Z,65.58
2023-05-03T09:45:24.411Z,64.23
2023-05-03T09:47:31.946Z,76.41
2023-05-03T09:49:37.111Z,74.18
2023-05-03T09:51:41.855Z,71.49
2023-05-03T09:53:45.164Z,71.42
2023-05-03T09:55:51.260Z,71.86
2023-05-03T09:57:55.808Z,71.36
2023-05-03T09:59:58.636Z,70.68
2023-05-03T10:02:04.993Z,71.14
2023-05-03T10:04:09.616Z,70.16
2023-05-03T10:06:32.148Z,72.14
2023-05-03T10:08:49.751Z,69.27
2023-05-03T10:10:54.557Z,68.64
2023-05-03T10:12:58.107Z,68.56
2023-05-03T10:15:03.158Z,68.27
2023-05-03T10:17:46.565Z,66.74
2023-05-03T10:19:58.151Z,68.92
2023-05-03T10:22:07.534Z,65.69
2023-05-03T10:24:14.253Z,66.46
2023-05-03T10:26:17.210Z,65.12
2023-05-03T10:28:20.633Z,64.94
2023-05-03T10:30:26.457Z,63.49
2023-05-03T10:32:36.268Z,59.60
2023-05-03T10:34:40.637Z,58.17
2023-05-03T10:36:49.981Z,56.44
2023-05-03T10:38:53.613Z,55.63
2023-05-03T10:40:57.138Z,54.99
2023-05-03T10:43:00.974Z,52.10
2023-05-03T10:45:04.377Z,51.53
2023-05-03T10:47:19.002Z,49.49
2023-05-03T10:49:23.651Z,49.45
2023-05-03T10:51:30.947Z,49.63
2023-05-03T10:53:37.060Z,48.78
2023-05-03T10:55:39.955Z,47.08
2023-05-03T10:57:44.527Z,48.00
2023-05-03T10:59:49.608Z,46.84
2023-05-03T11:01:53.798Z,47.12
2023-05-03T11:04:11.025Z,47.23
2023-05-03T11:06:37.030Z,45.66
2023-05-03T11:08:40.470Z,45.46
2023-05-03T11:10:44.650Z,46.99
2023-05-03T11:12:49.037Z,45.67
2023-05-03T11:14:51.812Z,45.04
2023-05-03T11:16:57.494Z,43.84
2023-05-03T11:19:01.985Z,44.18
2023-05-03T11:21:04.921Z,42.99
2023-05-03T11:23:08.024Z,42.98
2023-05-03T11:25:11.231Z,42.62
2023-05-03T11:27:15.872Z,42.30
2023-05-03T11:29:19.028Z,41.94
2023-05-03T11:31:23.295Z,42.41
2023-05-03T11:33:28.457Z,40.49
2023-05-03T11:35:32.212Z,41.01
2023-05-03T11:37:35.806Z,39.49
2023-05-03T11:39:39.345Z,40.14
2023-05-03T11:41:42.822Z,40.41
2023-05-03T11:43:52.844Z,41.32
2023-05-03T11:46:00.765Z,41.36
2023-05-03T11:48:04.056Z,41.92
2023-05-03T11:50:07.315Z,42.16
2023-05-03T11:52:10.153Z,41.20
2023-05-03T11:54:24.876Z,41.50
2023-05-03T11:56:30.257Z,41.19
2023-05-03T11:58:33.442Z,40.57
2023-05-03T12:00:37.231Z,39.46
2023-05-03T12:02:41.776Z,38.89
2023-05-03T12:04:46.218Z,39.59
2023-05-03T12:06:53.377Z,38.78
2023-05-03T12:08:58.097Z,38.33
2023-05-03T12:11:03.545Z,37.12
2023-05-03T12:13:09.021Z,38.51
2023-05-03T12:15:15.719Z,36.99
2023-05-03T12:17:38.746Z,36.94
2023-05-03T12:19:43.848Z,36.08
2023-05-03T12:23:56.292Z,35.59
2023-05-03T12:26:01.138Z,35.50
2023-05-03T12:30:12.516Z,35.46
2023-05-03T12:32:15.623Z,34.16
2023-05-03T12:36:26.260Z,31.85
2023-05-03T12:38:31.149Z,33.86
2023-05-03T12:40:35.270Z,31.41
2023-05-03T12:42:40.013Z,30.62
2023-05-03T12:44:48.115Z,31.30
2023-05-03T12:46:53.317Z,31.17
2023-05-03T12:48:58.079Z,30.87
2023-05-03T12:51:18.635Z,29.82
2023-05-03T12:53:25.854Z,30.03
2023-05-03T12:55:34.530Z,29.45
2023-05-03T12:57:38.439Z,30.52
2023-05-03T12:59:43.129Z,29.99
2023-05-03T13:03:08.152Z,29.55
2023-05-03T13:04:34.923Z,29.55
2023-05-03T13:06:41.308Z,27.92
2023-05-03T13:08:50.197Z,28.32
2023-05-03T13:10:53.984Z,27.20
2023-05-03T13:12:57.288Z,27.84
2023-05-03T13:15:02.916Z,28.04
2023-05-03T13:17:09.841Z,29.42
2023-05-03T13:19:13.704Z,27.22
2023-05-03T13:21:17.135Z,28.21
2023-05-03T13:23:19.870Z,27.17
2023-05-03T13:25:22.647Z,27.09
2023-05-03T13:27:25.574Z,27.05
2023-05-03T13:29:28.502Z,26.55
2023-05-03T13:31:31.504Z,25.76
2023-05-03T13:33:38.101Z,26.34
2023-05-03T13:35:41.002Z,26.41
2023-05-03T13:37:44.571Z,27.33
2023-05-03T13:39:47.805Z,26.09
2023-05-03T13:41:51.542Z,24.99
2023-05-03T13:43:54.313Z,24.80
2023-05-03T13:46:02.163Z,24.65
2023-05-03T13:48:17.144Z,24.17
2023-05-03T13:50:22.216Z,25.42
2023-05-03T13:52:25.236Z,24.61
2023-05-03T13:54:29.114Z,24.62
2023-05-03T13:56:33.857Z,23.53
2023-05-03T13:58:37.468Z,24.26
2023-05-03T14:00:40.774Z,24.23
2023-05-03T14:02:43.649Z,24.29
2023-05-03T14:04:46.717Z,23.11
2023-05-03T14:06:49.726Z,23.98
2023-05-03T14:08:54.466Z,24.26
2023-05-03T14:10:57.402Z,22.89
2023-05-03T14:13:00.508Z,23.96
2023-05-03T14:15:07.147Z,22.22
2023-05-03T14:17:10.075Z,22.94
2023-05-03T14:19:13.111Z,23.05
2023-05-03T14:21:18.742Z,22.79
2023-05-03T14:23:21.471Z,24.10
2023-05-03T14:25:24.343Z,22.05
2023-05-03T14:27:28.253Z,23.11
2023-05-03T14:29:31.144Z,23.53
2023-05-03T14:31:34.961Z,22.51
2023-05-03T14:33:37.864Z,23.49
2023-05-03T14:35:41.118Z,23.40
2023-05-03T14:37:43.912Z,22.94
2023-05-03T14:39:46.732Z,23.19
2023-05-03T14:41:51.205Z,23.01
2023-05-03T14:43:56.614Z,22.01
2023-05-03T14:45:59.413Z,22.98
2023-05-03T14:48:02.889Z,22.10
2023-05-03T14:50:08.735Z,22.99
2023-05-03T14:52:11.421Z,22.24
2023-05-03T14:54:14.309Z,22.31
2023-05-03T14:56:17.024Z,22.31
2023-05-03T14:58:19.764Z,22.12
2023-05-03T15:00:22.639Z,21.72
2023-05-03T15:02:25.447Z,22.00
2023-05-03T15:04:29.364Z,24.00
2023-05-03T15:06:33.251Z,22.90
2023-05-03T15:08:36.129Z,24.09
2023-05-03T15:10:39.963Z,22.71
2023-05-03T15:12:42.717Z,22.60
2023-05-03T15:14:45.844Z,25.53
2023-05-03T15:16:48.774Z,24.89
2023-05-03T15:18:51.625Z,25.32
2023-05-03T15:20:54.476Z,27.05
2023-05-03T15:22:57.200Z,26.61
2023-05-03T15:25:00.039Z,28.38
2023-05-03T15:27:03.097Z,29.78
2023-05-03T15:29:05.962Z,28.47
2023-05-03T15:31:08.718Z,30.96
2023-05-03T15:33:12.167Z,31.14
2023-05-03T15:35:15.297Z,32.44
2023-05-03T15:37:18.077Z,33.32
2023-05-03T15:39:20.824Z,33.12
2023-05-03T15:41:23.926Z,34.52
2023-05-03T15:43:26.867Z,33.56
2023-05-03T15:45:29.996Z,33.70
2023-05-03T15:47:33.777Z,32.73
2023-05-03T15:49:36.583Z,34.14
2023-05-03T15:51:39.577Z,36.18
2023-05-03T15:53:42.242Z,36.30
2023-05-03T15:55:45.133Z,36.75
2023-05-03T15:57:48.225Z,38.14
2023-05-03T15:59:51.011Z,39.15
2023-05-03T16:01:54.102Z,38.74
2023-05-03T16:03:57.357Z,38.97
2023-05-03T16:06:00.354Z,39.44
2023-05-03T16:08:03.053Z,40.54
2023-05-03T16:10:06.878Z,41.38
2023-05-03T16:12:09.861Z,40.61
2023-05-03T16:14:12.601Z,41.92
2023-05-03T16:16:15.462Z,42.96
2023-05-03T16:18:18.956Z,43.81
2023-05-03T16:20:21.647Z,42.26
2023-05-03T16:22:24.392Z,43.26
2023-05-03T16:24:28.582Z,43.94
2023-05-03T16:26:32.068Z,43.94
2023-05-03T16:28:34.703Z,43.89
2023-05-03T16:30:37.369Z,43.47
2023-05-03T16:32:40.402Z,44.24
2023-05-03T16:34:43.174Z,42.83
2023-05-03T16:36:46.000Z,43.33
2023-05-03T16:38:48.723Z,44.01
2023-05-03T16:40:51.390Z,44.37
2023-05-03T16:42:56.030Z,44.74
2023-05-03T16:44:58.839Z,44.15
2023-05-03T16:47:01.830Z,44.78
2023-05-03T16:49:06.536Z,44.98
2023-05-03T16:51:09.246Z,45.30
2023-05-03T16:53:12.871Z,44.83
2023-05-03T16:55:16.601Z,45.32
2023-05-03T16:57:19.459Z,45.98
2023-05-03T16:59:22.211Z,46.64
2023-05-03T17:01:25.209Z,46.17
2023-05-03T17:03:28.264Z,46.66
2023-05-03T17:05:33.413Z,46.43
2023-05-03T17:07:36.665Z,46.67
2023-05-03T17:09:39.544Z,46.02
2023-05-03T17:11:42.318Z,46.17
2023-05-03T17:13:45.350Z,46.10
2023-05-03T17:15:48.100Z,47.56
2023-05-03T17:17:52.282Z,47.74
2023-05-03T17:19:55.553Z,46.46
2023-05-03T17:21:58.269Z,48.60
2023-05-03T17:24:01.117Z,49.79
2023-05-03T17:26:08.887Z,49.18
2023-05-03T17:28:11.666Z,47.97
2023-05-03T17:30:14.846Z,48.93
2023-05-03T17:32:19.333Z,49.83
2023-05-03T17:34:22.627Z,49.68
2023-05-03T17:36:25.385Z,50.55
2023-05-03T17:38:28.449Z,50.10
2023-05-03T17:40:32.071Z,50.13
2023-05-03T17:42:35.480Z,49.58
2023-05-03T17:44:38.324Z,50.17
2023-05-03T17:46:41.187Z,50.54
2023-05-03T17:48:44.443Z,50.55
2023-05-03T17:50:47.403Z,49.98
2023-05-03T17:52:50.068Z,49.46
2023-05-03T17:54:52.860Z,50.96
2023-05-03T17:56:56.358Z,50.27
2023-05-03T17:58:59.172Z,49.74
2023-05-03T18:01:01.881Z,51.22
2023-05-03T18:03:05.260Z,51.34
2023-05-03T18:05:08.429Z,51.14
2023-05-03T18:07:11.118Z,50.83
2023-05-03T18:09:14.036Z,50.80
2023-05-03T18:11:17.520Z,51.30
2023-05-03T18:13:20.462Z,52.21
2023-05-03T18:15:23.408Z,52.17
2023-05-03T18:17:27.068Z,51.85
2023-05-03T18:19:29.878Z,52.47
2023-05-03T18:21:33.081Z,52.34
2023-05-03T18:23:35.950Z,52.82
2023-05-03T18:25:38.660Z,53.57
2023-05-03T18:27:41.416Z,52.99
2023-05-03T18:29:44.186Z,53.85
2023-05-03T18:31:47.249Z,54.86
2023-05-03T18:33:50.084Z,54.31
2023-05-03T18:35:53.498Z,53.98
2023-05-03T18:37:56.226Z,55.34
2023-05-03T18:39:59.541Z,54.80
2023-05-03T18:42:02.387Z,55.60
2023-05-03T18:44:05.211Z,55.96
2023-05-03T18:46:08.629Z,55.97
2023-05-03T18:48:12.053Z,54.87
2023-05-03T18:50:15.428Z,55.43
2023-05-03T18:52:19.057Z,55.84
2023-05-03T18:54:21.879Z,55.37
2023-05-03T18:56:24.761Z,56.13
2023-05-03T18:58:27.363Z,57.55
2023-05-03T19:00:30.992Z,56.64
2023-05-03T19:02:33.929Z,57.41
2023-05-03T19:04:37.967Z,57.52
2023-05-03T19:06:40.878Z,58.65
2023-05-03T19:08:44.026Z,58.03
2023-05-03T19:10:46.795Z,58.74
2023-05-03T19:12:53.538Z,57.79
2023-05-03T19:14:56.876Z,57.56
2023-05-03T19:16:59.890Z,57.42
2023-05-03T19:19:02.904Z,57.50
2023-05-03T19:21:05.770Z,57.23
2023-05-03T19:23:08.563Z,57.13
2023-05-03T19:25:11.303Z,57.40
2023-05-03T19:27:14.479Z,57.53
2023-05-03T19:29:17.156Z,57.01
2023-05-03T19:31:20.241Z,57.48
2023-05-03T19:33:22.977Z,57.48
2023-05-03T19:35:25.971Z,57.39
2023-05-03T19:37:28.860Z,57.41
2023-05-03T19:39:35.809Z,57.95
2023-05-03T19:41:39.163Z,58.25
2023-05-03T19:43:42.462Z,59.16
2023-05-03T19:45:45.269Z,58.45
2023-05-03T19:47:48.198Z,58.49
2023-05-03T21:14:20.630Z,60.46
2023-05-03T22:57:14.359Z,61.56
2023-05-03T22:59:17.075Z,61.24
2023-05-03T23:01:19.746Z,61.75
2023-05-03T23:03:22.860Z,62.06
2023-05-03T23:05:25.913Z,62.38
2023-05-03T23:07:28.598Z,62.88
2023-05-03T23:09:31.254Z,63.64
2023-05-03T23:11:33.943Z,63.99
2023-05-03T23:13:37.231Z,64.37
2023-05-03T23:15:40.258Z,64.65
2023-05-03T23:17:43.225Z,65.35
2023-05-03T23:19:46.304Z,65.18
2023-05-03T23:21:49.457Z,65.45
2023-05-03T23:23:52.350Z,64.96
2023-05-03T23:25:55.186Z,65.29
2023-05-03T23:27:58.424Z,64.85
2023-05-03T23:30:02.136Z,65.14
2023-05-03T23:32:07.901Z,64.65
2023-05-03T23:34:11.277Z,64.95
2023-05-03T23:36:13.935Z,64.98
2023-05-03T23:38:16.721Z,64.70
2023-05-03T23:40:19.597Z,64.61
2023-05-03T23:42:22.303Z,64.64
2023-05-03T23:44:28.355Z,64.56
2023-05-03T23:46:39.698Z,64.31
2023-05-03T23:48:42.903Z,64.57
2023-05-03T23:50:45.553Z,64.51
2023-05-03T23:52:48.286Z,65.14
2023-05-03T23:54:50.946Z,65.93
2023-05-03T23:56:53.746Z,66.52
2023-05-03T23:58:56.832Z,67.12
